createdAt,value
2018-09-29T00:00:32.763Z,11.90
2018-09-29T00:03:01.057Z,11.57
2018-09-29T00:05:29.312Z,12.87
2018-09-29T00:07:57.594Z,12.80
2018-09-29T00:10:25.940Z,13.27
2018-09-29T00:12:54.256Z,13.30
2018-09-29T00:15:22.535Z,14.87
2018-09-29T00:17:50.792Z,11.83
2018-09-29T00:20:19.083Z,12.60
2018-09-29T00:22:47.341Z,11.20
2018-09-29T00:25:15.630Z,11.63
2018-09-29T00:27:43.878Z,14.07
2018-09-29T00:30:12.137Z,11.97
2018-09-29T00:32:40.386Z,13.27
2018-09-29T00:35:09.904Z,12.53
2018-09-29T00:37:38.273Z,11.37
2018-09-29T00:40:06.721Z,12.83
2018-09-29T00:42:34.962Z,16.30
2018-09-29T00:45:03.272Z,11.70
2018-09-29T00:47:31.494Z,11.90
2018-09-29T00:50:00.641Z,12.10
2018-09-29T00:52:29.024Z,11.77
2018-09-29T00:54:57.264Z,11.20
2018-09-29T00:57:25.499Z,12.30
2018-09-29T00:59:53.711Z,16.00
2018-09-29T01:02:21.951Z,11.77
2018-09-29T01:04:50.180Z,12.63
2018-09-29T01:07:18.448Z,12.00
2018-09-29T01:09:46.718Z,13.83
2018-09-29T01:12:14.967Z,11.53
2018-09-29T01:14:43.174Z,13.43
2018-09-29T01:17:11.402Z,10.10
2018-09-29T01:19:39.631Z,13.20
2018-09-29T01:22:07.871Z,12.57
2018-09-29T01:24:36.130Z,10.47
2018-09-29T01:27:04.375Z,15.27
2018-09-29T01:29:32.589Z,15.90
2018-09-29T01:32:00.933Z,14.70
2018-09-29T01:34:29.182Z,17.73
2018-09-29T01:36:57.431Z,13.17
2018-09-29T01:39:25.651Z,18.70
2018-09-29T01:41:53.976Z,17.03
2018-09-29T01:44:22.239Z,16.10
2018-09-29T01:46:50.486Z,14.20
2018-09-29T01:49:18.727Z,14.87
2018-09-29T01:51:46.969Z,15.67
2018-09-29T01:54:15.227Z,16.13
2018-09-29T01:56:43.866Z,16.03
2018-09-29T01:59:12.152Z,13.40
2018-09-29T02:01:40.472Z,15.93
2018-09-29T02:04:08.886Z,17.13
2018-09-29T02:06:37.143Z,13.50
2018-09-29T02:09:06.336Z,13.10
2018-09-29T02:11:34.627Z,13.03
2018-09-29T02:14:02.976Z,14.80
2018-09-29T02:16:31.280Z,15.53
2018-09-29T02:18:59.536Z,15.70
2018-09-29T02:21:27.794Z,14.10
2018-09-29T02:23:56.039Z,15.67
2018-09-29T02:26:24.271Z,15.07
2018-09-29T02:28:52.575Z,13.70
2018-09-29T02:31:20.791Z,16.40
2018-09-29T02:33:49.031Z,12.80
2018-09-29T02:36:17.279Z,11.13
2018-09-29T02:38:45.535Z,11.27
2018-09-29T02:41:13.754Z,10.80
2018-09-29T02:43:42.015Z,13.10
2018-09-29T02:46:10.350Z,14.47
2018-09-29T02:48:38.604Z,15.97
2018-09-29T02:51:06.847Z,13.70
2018-09-29T02:53:35.092Z,11.40
2018-09-29T02:56:03.311Z,11.20
2018-09-29T02:58:31.531Z,15.10
2018-09-29T03:00:59.788Z,10.47
2018-09-29T03:03:28.028Z,13.40
2018-09-29T03:05:56.256Z,11.73
2018-09-29T03:08:24.497Z,12.90
2018-09-29T03:10:52.710Z,12.87
2018-09-29T03:13:20.937Z,13.73
2018-09-29T03:15:49.343Z,13.40
2018-09-29T03:18:17.563Z,17.70
2018-09-29T03:20:45.847Z,12.47
2018-09-29T03:23:14.200Z,14.37
2018-09-29T03:25:42.367Z,13.43
2018-09-29T03:28:10.619Z,14.90
2018-09-29T03:30:38.819Z,12.83
2018-09-29T03:33:07.099Z,11.00
2018-09-29T03:35:35.339Z,10.97
2018-09-29T03:38:03.546Z,9.87
2018-09-29T03:40:31.799Z,12.90
2018-09-29T03:43:00.078Z,13.00
2018-09-29T03:45:28.331Z,11.53
2018-09-29T03:47:56.560Z,13.17
2018-09-29T03:50:24.863Z,11.60
2018-09-29T03:52:53.290Z,12.60
2018-09-29T03:55:21.553Z,12.00
2018-09-29T03:57:49.831Z,11.63
2018-09-29T04:00:18.070Z,11.27
2018-09-29T04:02:46.314Z,11.20
2018-09-29T04:05:14.567Z,12.17
2018-09-29T04:07:42.840Z,11.53
2018-09-29T04:10:11.082Z,10.87
2018-09-29T04:12:39.320Z,12.63
2018-09-29T04:15:07.919Z,10.17
2018-09-29T04:17:36.178Z,13.10
2018-09-29T04:20:04.523Z,15.10
2018-09-29T04:22:32.770Z,11.80
2018-09-29T04:25:01.023Z,15.73
2018-09-29T04:27:29.252Z,13.03
2018-09-29T04:29:57.510Z,17.40
2018-09-29T04:32:25.735Z,11.70
2018-09-29T04:34:53.976Z,11.13
2018-09-29T04:37:22.219Z,11.33
2018-09-29T04:39:50.466Z,11.70
2018-09-29T04:42:18.690Z,10.97
2018-09-29T04:44:46.919Z,10.40
2018-09-29T04:47:15.134Z,10.13
2018-09-29T04:49:43.350Z,10.60
2018-09-29T04:52:11.567Z,9.27
2018-09-29T04:54:39.807Z,9.20
2018-09-29T04:57:08.047Z,9.80
2018-09-29T04:59:36.259Z,10.27
2018-09-29T05:02:04.478Z,10.80
2018-09-29T05:04:32.682Z,8.70
2018-09-29T05:07:00.898Z,8.50
2018-09-29T05:09:29.115Z,8.37
2018-09-29T05:11:57.371Z,10.43
2018-09-29T05:14:25.580Z,10.80
2018-09-29T05:16:53.824Z,7.73
2018-09-29T05:19:22.052Z,12.50
2018-09-29T05:21:50.288Z,9.00
2018-09-29T05:24:18.506Z,8.20
2018-09-29T05:26:46.760Z,5.90
2018-09-29T05:29:14.989Z,7.20
2018-09-29T05:31:43.214Z,5.37
2018-09-29T05:34:11.439Z,5.67
2018-09-29T05:36:39.651Z,6.40
2018-09-29T05:39:08.848Z,7.80
2018-09-29T05:41:37.123Z,8.80
2018-09-29T05:44:05.371Z,12.43
2018-09-29T05:46:33.610Z,6.50
2018-09-29T05:49:01.896Z,7.57
2018-09-29T05:51:30.107Z,9.30
2018-09-29T05:53:58.353Z,8.00
2018-09-29T05:56:26.553Z,7.10
2018-09-29T05:58:54.762Z,8.50
2018-09-29T06:01:23.007Z,6.77
2018-09-29T06:03:51.253Z,12.80
2018-09-29T06:06:19.482Z,6.60
2018-09-29T06:08:47.703Z,8.90
2018-09-29T06:11:15.927Z,5.83
2018-09-29T06:13:44.145Z,5.63
2018-09-29T06:16:12.523Z,12.67
2018-09-29T06:18:40.739Z,8.13
2018-09-29T06:21:08.963Z,7.80
2018-09-29T06:23:37.647Z,7.73
2018-09-29T06:26:05.928Z,8.43
2018-09-29T06:28:34.163Z,6.67
2018-09-29T06:31:02.390Z,6.53
2018-09-29T06:33:30.614Z,5.63
2018-09-29T06:35:58.838Z,8.17
2018-09-29T06:38:27.074Z,7.20
2018-09-29T06:40:55.343Z,6.47
2018-09-29T06:43:23.522Z,8.27
2018-09-29T06:45:51.739Z,5.30
2018-09-29T06:48:20.203Z,8.57
2018-09-29T06:50:48.395Z,9.17
2018-09-29T06:53:16.599Z,36.90
2018-09-29T06:55:44.803Z,9.43
2018-09-29T06:58:13.087Z,11.67
2018-09-29T07:00:41.278Z,8.93
2018-09-29T07:03:09.502Z,5.90
2018-09-29T07:05:37.707Z,5.03
2018-09-29T07:08:05.918Z,7.33
2018-09-29T07:10:34.123Z,10.40
2018-09-29T07:13:02.415Z,10.00
2018-09-29T07:15:30.563Z,5.80
2018-09-29T07:17:58.770Z,4.53
2018-09-29T07:20:26.962Z,6.23
2018-09-29T07:22:55.175Z,8.30
2018-09-29T07:25:23.428Z,8.00
2018-09-29T07:27:51.583Z,5.53
2018-09-29T07:30:19.807Z,7.27
2018-09-29T07:32:48.015Z,6.77
2018-09-29T07:35:16.348Z,6.37
2018-09-29T07:37:44.555Z,9.77
2018-09-29T07:40:12.779Z,7.57
2018-09-29T07:42:40.999Z,5.77
2018-09-29T07:45:09.218Z,5.63
2018-09-29T07:47:37.454Z,5.60
2018-09-29T07:50:05.692Z,6.50
2018-09-29T07:52:33.944Z,6.03
2018-09-29T07:55:02.163Z,6.90
2018-09-29T07:57:30.419Z,6.73
2018-09-29T07:59:58.640Z,9.80
2018-09-29T08:02:26.971Z,7.43
2018-09-29T08:04:55.188Z,7.63
2018-09-29T08:07:23.413Z,8.90
2018-09-29T08:09:51.631Z,6.07
2018-09-29T08:12:19.870Z,5.33
2018-09-29T08:14:48.080Z,7.27
2018-09-29T08:17:16.403Z,7.20
2018-09-29T08:19:44.642Z,6.23
2018-09-29T08:22:12.859Z,8.10
2018-09-29T08:24:41.076Z,5.63
2018-09-29T08:27:09.290Z,9.20
2018-09-29T08:29:37.543Z,7.30
2018-09-29T08:32:05.766Z,8.17
2018-09-29T08:34:34.039Z,7.17
2018-09-29T08:37:02.252Z,8.53
2018-09-29T08:39:30.487Z,11.67
2018-09-29T08:41:58.703Z,6.50
2018-09-29T08:44:28.271Z,7.33
2018-09-29T08:46:56.483Z,4.77
2018-09-29T08:49:24.731Z,5.20
2018-09-29T08:51:52.943Z,6.50
2018-09-29T08:54:21.175Z,6.30
2018-09-29T08:56:49.389Z,7.73
2018-09-29T08:59:17.663Z,8.77
2018-09-29T09:01:45.894Z,6.20
2018-09-29T09:04:14.115Z,9.37
2018-09-29T09:06:42.338Z,6.70
2018-09-29T09:09:11.242Z,6.13
2018-09-29T09:11:39.483Z,6.30
2018-09-29T09:14:07.810Z,8.90
2018-09-29T09:16:36.035Z,6.90
2018-09-29T09:19:04.277Z,6.30
2018-09-29T09:21:32.720Z,5.77
2018-09-29T09:24:00.994Z,6.73
2018-09-29T09:26:29.497Z,5.30
2018-09-29T09:28:57.747Z,6.63
2018-09-29T09:31:26.100Z,6.20
2018-09-29T09:33:54.355Z,6.57
2018-09-29T09:36:22.611Z,3.30
2018-09-29T09:38:50.887Z,9.97
2018-09-29T09:41:19.267Z,5.70
2018-09-29T09:43:47.667Z,5.30
2018-09-29T09:46:15.904Z,5.93
2018-09-29T09:48:44.211Z,5.70
2018-09-29T09:51:13.052Z,5.77
2018-09-29T09:53:41.284Z,8.20
2018-09-29T09:56:09.739Z,5.20
2018-09-29T09:58:38.430Z,5.33
2018-09-29T10:01:12.157Z,6.63
2018-09-29T10:03:40.351Z,6.20
2018-09-29T10:06:09.245Z,9.77
2018-09-29T10:08:37.512Z,5.57
2018-09-29T10:11:05.786Z,3.50
2018-09-29T10:13:35.088Z,8.37
2018-09-29T10:16:03.316Z,7.60
2018-09-29T10:18:31.586Z,5.97
2018-09-29T10:20:59.803Z,5.10
2018-09-29T10:23:28.031Z,6.40
2018-09-29T10:25:56.480Z,7.73
2018-09-29T10:28:24.679Z,9.13
2018-09-29T10:30:52.907Z,6.27
2018-09-29T10:33:21.131Z,6.57
2018-09-29T10:35:49.367Z,7.70
2018-09-29T10:38:17.577Z,8.17
2018-09-29T10:40:45.800Z,8.10
2018-09-29T10:43:14.023Z,6.43
2018-09-29T10:45:42.515Z,6.30
2018-09-29T10:48:10.707Z,3.93
2018-09-29T10:50:38.903Z,3.57
2018-09-29T10:53:07.255Z,11.67
2018-09-29T10:55:35.520Z,9.17
2018-09-29T10:58:03.706Z,8.40
2018-09-29T11:00:31.923Z,5.00
2018-09-29T11:03:00.123Z,4.80
2018-09-29T11:05:28.389Z,4.00
2018-09-29T11:07:56.596Z,6.20
2018-09-29T11:10:24.880Z,3.73
2018-09-29T11:12:53.103Z,5.60
2018-09-29T11:15:21.311Z,4.60
2018-09-29T11:17:49.525Z,4.47
2018-09-29T11:20:17.722Z,4.87
2018-09-29T11:22:45.931Z,6.67
2018-09-29T11:25:14.140Z,9.53
2018-09-29T11:27:42.364Z,3.50
2018-09-29T11:30:10.558Z,3.60
2018-09-29T11:32:38.765Z,4.33
2018-09-29T11:35:07.171Z,2.80
2018-09-29T11:37:35.639Z,5.40
2018-09-29T11:40:03.879Z,7.37
2018-09-29T11:42:32.183Z,5.30
2018-09-29T11:45:00.425Z,3.83
2018-09-29T11:47:28.658Z,5.27
2018-09-29T11:49:56.899Z,5.37
2018-09-29T11:52:25.155Z,6.53
2018-09-29T11:54:53.421Z,5.90
2018-09-29T11:57:21.672Z,3.87
2018-09-29T11:59:49.913Z,5.63
2018-09-29T12:02:18.180Z,2.80
2018-09-29T12:04:46.416Z,4.90
2018-09-29T12:07:14.699Z,5.97
2018-09-29T12:09:42.941Z,6.13
2018-09-29T12:12:11.188Z,3.33
2018-09-29T12:14:39.437Z,4.20
2018-09-29T12:17:07.693Z,4.73
2018-09-29T12:19:35.936Z,4.20
2018-09-29T12:22:04.183Z,3.53
2018-09-29T12:24:32.410Z,3.47
2018-09-29T12:27:00.657Z,7.43
2018-09-29T12:29:28.895Z,8.83
2018-09-29T12:31:57.146Z,7.03
2018-09-29T12:34:25.704Z,3.57
2018-09-29T12:36:54.000Z,4.57
2018-09-29T12:39:22.195Z,5.70
2018-09-29T12:41:50.627Z,5.53
2018-09-29T12:44:18.929Z,4.30
2018-09-29T12:46:47.729Z,5.30
2018-09-29T12:49:16.478Z,3.33
2018-09-29T12:51:44.834Z,6.07
2018-09-29T12:54:13.108Z,5.80
2018-09-29T12:56:41.356Z,3.87
2018-09-29T12:59:09.634Z,4.33
2018-09-29T13:01:37.906Z,4.80
2018-09-29T13:04:06.173Z,7.27
2018-09-29T13:06:34.420Z,5.30
2018-09-29T13:09:02.715Z,6.17
2018-09-29T13:11:30.951Z,4.43
2018-09-29T13:13:59.260Z,9.53
2018-09-29T13:16:27.483Z,7.67
2018-09-29T13:18:55.801Z,4.43
2018-09-29T13:21:24.051Z,3.30
2018-09-29T13:23:52.345Z,2.67
2018-09-29T13:26:20.690Z,3.80
2018-09-29T13:28:48.963Z,4.00
2018-09-29T13:31:17.224Z,4.27
2018-09-29T13:33:46.127Z,3.70
2018-09-29T13:36:17.664Z,3.10
2018-09-29T13:38:47.339Z,6.90
2018-09-29T13:41:15.923Z,4.57
2018-09-29T13:43:44.520Z,3.33
2018-09-29T13:46:12.869Z,6.53
2018-09-29T13:48:41.173Z,3.80
2018-09-29T13:51:09.409Z,4.70
2018-09-29T13:53:37.698Z,4.90
2018-09-29T13:56:06.010Z,6.53
2018-09-29T13:58:34.276Z,4.17
2018-09-29T14:01:02.628Z,3.67
2018-09-29T14:03:31.019Z,10.30
2018-09-29T14:05:59.492Z,5.10
2018-09-29T14:08:27.768Z,4.33
2018-09-29T14:10:56.023Z,4.10
2018-09-29T14:13:24.557Z,3.33
2018-09-29T14:15:56.637Z,4.27
2018-09-29T14:18:36.550Z,5.37
2018-09-29T14:24:16.875Z,5.00
2018-09-29T14:26:53.324Z,5.50
2018-09-29T14:29:47.337Z,4.00
2018-09-29T14:35:22.976Z,5.67
2018-09-29T14:37:52.549Z,6.00
2018-09-29T14:40:21.269Z,5.83
2018-09-29T14:42:50.024Z,6.03
2018-09-29T14:45:18.973Z,4.33
2018-09-29T14:47:47.522Z,4.97
2018-09-29T14:50:15.945Z,5.20
2018-09-29T14:52:44.506Z,7.90
2018-09-29T14:55:13.106Z,4.77
2018-09-29T14:57:41.676Z,6.83
2018-09-29T15:00:10.160Z,6.93
2018-09-29T15:02:38.448Z,5.23
2018-09-29T15:05:06.798Z,4.00
2018-09-29T15:07:35.480Z,4.50
2018-09-29T15:10:03.955Z,4.23
2018-09-29T15:12:32.532Z,5.17
2018-09-29T15:15:00.911Z,4.70
2018-09-29T15:17:29.367Z,4.63
2018-09-29T15:19:57.686Z,6.10
2018-09-29T15:22:26.071Z,3.97
2018-09-29T15:24:54.377Z,7.70
2018-09-29T15:27:22.761Z,3.77
2018-09-29T15:29:57.183Z,3.60
2018-09-29T15:32:25.520Z,4.60
2018-09-29T15:35:05.730Z,4.80
2018-09-29T15:37:34.052Z,4.50
2018-09-29T15:40:02.485Z,6.80
2018-09-29T15:42:30.851Z,4.77
2018-09-29T15:44:59.209Z,4.43
2018-09-29T15:47:27.584Z,7.93
2018-09-29T15:49:55.921Z,6.77
2018-09-29T15:52:24.424Z,5.57
2018-09-29T15:54:52.771Z,8.20
2018-09-29T15:57:21.200Z,5.57
2018-09-29T15:59:49.555Z,5.27
2018-09-29T16:02:17.966Z,4.40
2018-09-29T16:04:46.303Z,7.30
2018-09-29T16:07:14.696Z,5.97
2018-09-29T16:09:43.091Z,7.87
2018-09-29T16:12:11.406Z,6.20
2018-09-29T16:14:39.753Z,7.33
2018-09-29T16:17:08.184Z,4.70
2018-09-29T16:19:36.624Z,7.47
2018-09-29T16:22:05.078Z,6.03
2018-09-29T16:24:33.614Z,5.10
2018-09-29T16:27:02.018Z,7.23
2018-09-29T16:29:30.549Z,4.80
2018-09-29T16:31:59.029Z,4.00
2018-09-29T16:34:27.405Z,7.07
2018-09-29T16:36:55.875Z,8.00
2018-09-29T16:39:24.319Z,7.17
2018-09-29T16:41:52.741Z,6.40
2018-09-29T16:44:21.232Z,5.13
2018-09-29T16:46:49.740Z,6.20
2018-09-29T16:49:18.445Z,6.73
2018-09-29T16:51:47.514Z,4.67
2018-09-29T16:54:16.265Z,5.40
2018-09-29T16:56:45.063Z,7.07
2018-09-29T16:59:16.751Z,6.13
2018-09-29T17:01:48.578Z,7.80
2018-09-29T17:04:18.215Z,8.03
2018-09-29T17:06:47.021Z,5.33
2018-09-29T17:09:15.605Z,9.30
2018-09-29T17:11:44.028Z,5.93
2018-09-29T17:14:12.437Z,3.87
2018-09-29T17:16:41.390Z,4.10
2018-09-29T17:19:09.736Z,6.97
2018-09-29T17:21:38.169Z,5.20
2018-09-29T17:24:06.618Z,7.23
2018-09-29T17:26:35.311Z,8.53
2018-09-29T17:29:03.722Z,3.97
2018-09-29T17:31:32.178Z,4.50
2018-09-29T17:34:00.401Z,4.17
2018-09-29T17:36:28.596Z,5.10
2018-09-29T17:38:56.798Z,5.50
2018-09-29T17:41:25.022Z,6.87
2018-09-29T17:43:53.235Z,7.77
2018-09-29T17:46:21.470Z,12.43
2018-09-29T17:48:49.731Z,10.50
2018-09-29T17:51:17.941Z,8.40
2018-09-29T17:53:46.274Z,11.20
2018-09-29T17:56:14.471Z,11.67
2018-09-29T17:58:42.679Z,10.03
2018-09-29T18:01:10.867Z,6.13
2018-09-29T18:03:39.063Z,14.70
2018-09-29T18:06:07.251Z,7.97
2018-09-29T18:08:35.469Z,8.47
2018-09-29T18:11:03.654Z,12.50
2018-09-29T18:13:31.929Z,8.80
2018-09-29T18:16:00.068Z,6.33
2018-09-29T18:18:28.283Z,9.70
2018-09-29T18:20:56.574Z,12.20
2018-09-29T18:23:24.784Z,7.23
2018-09-29T18:25:52.984Z,9.73
2018-09-29T18:28:21.199Z,7.23
2018-09-29T18:30:49.394Z,5.80
2018-09-29T18:33:17.604Z,8.30
2018-09-29T18:35:45.901Z,10.90
2018-09-29T18:38:14.200Z,6.47
2018-09-29T18:40:42.415Z,8.03
2018-09-29T18:43:10.614Z,8.60
2018-09-29T18:45:38.820Z,9.83
2018-09-29T18:48:07.058Z,12.60
2018-09-29T18:50:35.266Z,11.20
2018-09-29T18:53:03.488Z,8.73
2018-09-29T18:55:31.695Z,9.60
2018-09-29T18:57:59.903Z,10.47
2018-09-29T19:00:28.113Z,7.47
2018-09-29T19:02:56.318Z,7.83
2018-09-29T19:05:24.534Z,8.80
2018-09-29T19:07:52.755Z,7.07
2018-09-29T19:10:20.979Z,6.70
2018-09-29T19:12:49.290Z,13.20
2018-09-29T19:15:17.666Z,7.63
2018-09-29T19:17:45.879Z,8.27
2018-09-29T19:20:14.087Z,8.17
2018-09-29T19:22:42.285Z,7.53
2018-09-29T19:25:10.495Z,8.47
2018-09-29T19:27:38.687Z,5.57
2018-09-29T19:30:06.915Z,8.43
2018-09-29T19:32:35.108Z,10.17
2018-09-29T19:35:03.335Z,9.47
2018-09-29T19:37:31.533Z,7.00
2018-09-29T19:39:59.743Z,9.87
2018-09-29T19:42:28.143Z,9.03
2018-09-29T19:44:56.381Z,9.90
2018-09-29T19:47:24.638Z,8.60
2018-09-29T19:49:53.319Z,7.27
2018-09-29T19:52:21.694Z,6.43
2018-09-29T19:54:49.945Z,6.80
2018-09-29T19:57:18.168Z,7.53
2018-09-29T19:59:46.410Z,9.23
2018-09-29T20:02:14.762Z,7.03
2018-09-29T20:04:43.011Z,8.53
2018-09-29T20:07:11.230Z,8.70
2018-09-29T20:09:39.469Z,9.50
2018-09-29T20:12:07.768Z,6.63
2018-09-29T20:14:35.991Z,6.23
2018-09-29T20:17:04.221Z,9.40
2018-09-29T20:19:32.439Z,8.03
2018-09-29T20:22:00.671Z,9.70
2018-09-29T20:24:28.932Z,9.40
2018-09-29T20:26:57.103Z,8.33
2018-09-29T20:29:25.307Z,8.17
2018-09-29T20:31:53.522Z,6.80
2018-09-29T20:34:21.722Z,6.30
2018-09-29T20:36:49.987Z,8.00
2018-09-29T20:39:18.191Z,8.13
2018-09-29T20:41:46.431Z,5.40
2018-09-29T20:44:14.644Z,10.37
2018-09-29T20:46:42.916Z,7.40
2018-09-29T20:49:11.099Z,7.57
2018-09-29T20:51:39.294Z,5.97
2018-09-29T20:54:07.495Z,8.47
2018-09-29T20:56:35.703Z,6.47
2018-09-29T20:59:03.923Z,6.30
2018-09-29T21:01:32.170Z,6.80
2018-09-29T21:04:00.339Z,9.33
2018-09-29T21:06:28.549Z,7.40
2018-09-29T21:08:56.755Z,6.87
2018-09-29T21:11:24.968Z,7.67
2018-09-29T21:13:53.186Z,11.13
2018-09-29T21:16:21.403Z,11.90
2018-09-29T21:18:49.607Z,8.47
2018-09-29T21:21:17.836Z,6.57
2018-09-29T21:23:46.051Z,6.17
2018-09-29T21:26:14.272Z,6.53
2018-09-29T21:28:42.482Z,10.00
2018-09-29T21:31:10.706Z,7.63
2018-09-29T21:33:38.916Z,8.47
2018-09-29T21:36:07.170Z,7.50
2018-09-29T21:38:35.381Z,11.47
2018-09-29T21:41:03.626Z,11.40
2018-09-29T21:43:31.827Z,7.17
2018-09-29T21:46:00.091Z,8.63
2018-09-29T21:48:28.308Z,6.90
2018-09-29T21:50:56.510Z,8.00
2018-09-29T21:53:24.738Z,8.80
2018-09-29T21:55:52.971Z,7.63
2018-09-29T21:58:21.211Z,9.87
2018-09-29T22:00:49.429Z,8.10
2018-09-29T22:03:17.646Z,9.13
2018-09-29T22:05:46.704Z,13.90
2018-09-29T22:08:15.204Z,7.30
2018-09-29T22:10:43.879Z,9.87
2018-09-29T22:13:12.109Z,8.20
2018-09-29T22:15:40.319Z,9.20
2018-09-29T22:18:08.536Z,9.43
2018-09-29T22:20:36.758Z,10.93
2018-09-29T22:23:05.095Z,10.43
2018-09-29T22:25:33.311Z,11.00
2018-09-29T22:28:01.540Z,8.53
2018-09-29T22:30:29.755Z,6.23
2018-09-29T22:32:57.987Z,7.03
2018-09-29T22:35:26.202Z,9.90
2018-09-29T22:37:54.439Z,8.10
2018-09-29T22:40:22.911Z,7.57
2018-09-29T22:42:51.131Z,7.33
2018-09-29T22:45:19.344Z,11.10
2018-09-29T22:47:47.591Z,9.37
2018-09-29T22:50:15.949Z,8.70
2018-09-29T22:52:44.851Z,8.60
2018-09-29T22:55:13.951Z,7.47
2018-09-29T22:57:42.783Z,9.63
2018-09-29T23:00:11.038Z,9.00
2018-09-29T23:02:39.432Z,7.43
2018-09-29T23:05:07.735Z,9.80
2018-09-29T23:07:35.968Z,10.17
2018-09-29T23:10:04.191Z,13.80
2018-09-29T23:12:32.414Z,10.00
2018-09-29T23:15:00.611Z,7.60
2018-09-29T23:17:28.823Z,12.90
2018-09-29T23:19:57.039Z,7.60
2018-09-29T23:22:25.267Z,9.57
2018-09-29T23:24:53.470Z,7.63
2018-09-29T23:27:21.683Z,7.67
2018-09-29T23:29:49.907Z,7.70
2018-09-29T23:32:18.118Z,11.67
2018-09-29T23:34:46.322Z,7.30
2018-09-29T23:37:14.516Z,8.73
2018-09-29T23:39:42.751Z,9.23
2018-09-29T23:42:10.972Z,8.53
2018-09-29T23:44:39.204Z,7.63
2018-09-29T23:47:07.455Z,7.20
2018-09-29T23:49:35.686Z,9.80
2018-09-29T23:52:03.915Z,6.33
2018-09-29T23:54:32.211Z,10.50
2018-09-29T23:57:00.395Z,9.80
2018-09-29T23:59:28.618Z,10.67
